Detall de PIREP

Printer-friendly versionPDF version

[2015/01/10 12:14:00]
Flight IATA:CT3101
Pilot Number:044
Company ICAO:CAT
Aircraft Type:B463/A
PAX:98
Aircraft Registration:PAX
Departing Airport: LEBL
Destination Airport: LIEA
Alternate Airport:LIRF
Online: VATSIM
Route:VERSO UM24 LAPIT UN725 ORKUM UM603 ELSAG
Flight Level:F280
No Slew and time accel
No pause
Crash detect
Detect pilot in Cockpit between each 30 and 45 minutes
12:14 Zero fuel Weight: 76740 Lbs, Fuel Weight: 13445 Lbs
12:14 VATSIM:LEBL 101200Z 31009KT 280V340 CAVOK 16/06 Q1031 NOSIG
12:14 VATSIM:LIEA 101150Z 22009KT 9999 FEW020 17/13 Q1029
12:14 Parking Brakes off
12:27 Take-off
12:27 Take off Weight: 89411 Lbs
12:27 Wind: 301º @ 008 Knots Heading: 246º
12:27 POS N41º 17´ 04´´ E002º 04´ 51´´
12:27 Flaps:1 at 167 Knots
12:27 Flaps:0 at 167 Knots
12:27 Gear Up: 166 Knots
12:42 Wind:285º@016 Knots Heading: 033º Ground Speed: 377 Knots Altitude 26535 ft
12:43 TOC
12:43 Fuel Weight: 10467 Lb
12:57 Wind:262º@028 Knots Heading: 104º Ground Speed: 424 Knots Altitude 28497 ft
13:04 TOD
13:04 Fuel Weight: 8484 Lb
13:12 Wind:263º@029 Knots Heading: 093º Ground Speed: 389 Knots Altitude 20885 ft
13:19 Flaps:4 at 273 Knots
13:19 Flaps:0 at 264 Knots
13:27 Wind:247º@013 Knots Heading: 207º Ground Speed: 179 Knots Altitude 3077 ft
13:28 Gear Down: 191 Knots
13:28 Flaps:1 at 188 Knots
13:28 Flaps:2 at 182 Knots
13:28 Flaps:3 at 158 Knots
13:29 TouchDown:Rate -193 ft/min Speed: 127 Knots
13:29 VATSIM:LIEA 101320Z 26008KT 230V300 9999 FEW020 18/13 Q1027
13:29 Land
13:29 Wind:269º@008 Knots
13:29 Heading: 201º
13:29 Flight Duration: 01:02
13:29 Landing Weight: 84117 Lbs
13:29 POS N40º 37´ 47´´ E008º 17´ 22´´
13:33 Parking brakes on
13:33 Block to Block Duration: 01:19
13:33 Final Fuel: 7242 Lbls
13:33 SpentFuel: 6203 Lbls
13:33 Flight Length: 363 NM
13:33 TOD Land Length: 132 NM

Exportar CSV

Powered by Drupal - Modified by Danger4k